Time;durP1;ratioP1;P1;durP2;ratioP2;P2;SDS_P1;SDS_P2;PMS_P1;PMS_P2;Temp;Humidity;BMP_temperature;BMP_pressure;BME280_temperature;BME280_humidity;BME280_pressure;Samples;Min_cycle;Max_cycle;Signal;HPM_P1;HPM_P2
2021/06/10 00:00:01;;;;;;;6.53;3.60;;;;;;;15.74;78.99;99017.03;1745792;82;21522;-60
2021/06/10 00:02:27;;;;;;;4.65;3.80;;;;;;;15.77;78.83;99021.06;1732169;82;21039;-59
2021/06/10 00:04:54;;;;;;;8.45;3.80;;;;;;;15.77;78.78;99012.27;1737894;82;21004;-60
2021/06/10 00:07:20;;;;;;;;;;;;;;;15.77;78.75;99006.78;1750889;82;21038;-60
2021/06/10 00:09:47;;;;;;;6.15;3.90;;;;;;;15.75;78.78;99009.05;1738914;82;20463;-59
2021/06/10 00:12:15;;;;;;;8.03;3.80;;;;;;;15.60;79.16;99005.41;1724598;82;21122;-59
2021/06/10 00:14:43;;;;;;;4.58;3.52;;;;;;;15.57;79.26;99007.99;1737810;82;21019;-60
2021/06/10 00:17:09;;;;;;;7.00;3.90;;;;;;;15.56;79.00;99003.63;1731142;82;21101;-59
2021/06/10 00:19:35;;;;;;;9.53;3.92;;;;;;;15.53;79.12;99005.64;1729256;82;21588;-59
2021/06/10 00:22:03;;;;;;;5.53;3.95;;;;;;;15.48;79.21;99001.67;1728930;82;21059;-59
2021/06/10 00:24:30;;;;;;;5.62;3.55;;;;;;;15.44;79.28;99008.36;1737510;82;21110;-59
2021/06/10 00:26:56;;;;;;;5.28;3.92;;;;;;;15.41;79.41;99007.05;1729275;82;21422;-59
2021/06/10 00:29:23;;;;;;;8.88;3.80;;;;;;;15.35;79.70;99006.16;1749405;82;21031;-59
2021/06/10 00:31:49;;;;;;;8.80;3.90;;;;;;;15.24;79.99;98997.98;1711101;84;21500;-59
2021/06/10 00:34:16;;;;;;;8.95;4.30;;;;;;;15.20;80.26;98997.82;1749965;82;21007;-59
2021/06/10 00:36:42;;;;;;;7.37;3.98;;;;;;;15.15;80.34;98997.98;1734993;82;21469;-59
2021/06/10 00:39:09;;;;;;;6.75;3.70;;;;;;;15.15;80.38;98996.62;1748547;82;21046;-60
2021/06/10 00:41:36;;;;;;;6.25;3.17;;;;;;;15.16;80.43;98994.69;1741097;82;20983;-60
2021/06/10 00:44:06;;;;;;;6.65;3.83;;;;;;;15.14;80.42;99001.03;1712472;84;21089;-59
2021/06/10 00:46:33;;;;;;;6.40;3.90;;;;;;;15.08;80.59;98993.54;1736558;82;20935;-61
2021/06/10 00:49:00;;;;;;;5.12;4.28;;;;;;;15.05;80.73;98992.81;1739949;82;21030;-60
2021/06/10 00:51:26;;;;;;;5.95;4.25;;;;;;;15.04;80.77;98994.48;1731066;82;21011;-59
2021/06/10 00:53:52;;;;;;;;;;;;;;;14.99;80.91;98988.58;1732952;82;21015;-60
2021/06/10 00:56:19;;;;;;;5.20;4.28;;;;;;;14.97;81.02;98978.52;1744869;82;20144;-60
2021/06/10 00:58:45;;;;;;;7.03;4.00;;;;;;;14.93;81.19;98991.23;1707488;82;21648;-60
2021/06/10 01:01:12;;;;;;;6.08;3.95;;;;;;;14.92;81.20;98990.42;1735941;82;21002;-60
2021/06/10 01:03:39;;;;;;;5.47;4.15;;;;;;;14.92;81.19;98990.98;1723065;83;21525;-60
2021/06/10 01:06:10;;;;;;;6.67;4.35;;;;;;;14.95;81.22;98990.34;1731937;82;20994;-60
2021/06/10 01:08:57;;;;;;;6.83;4.33;;;;;;;14.91;81.21;98987.43;1740463;82;21126;-60
2021/06/10 01:11:42;;;;;;;7.87;4.22;;;;;;;14.86;81.46;98988.16;1730697;82;21314;-61
2021/06/10 01:14:35;;;;;;;6.37;4.40;;;;;;;14.84;81.54;98989.83;1725175;82;21057;-61
2021/06/10 01:17:03;;;;;;;8.38;4.30;;;;;;;14.79;81.81;98980.95;1672667;85;21110;-61
2021/06/10 01:19:59;;;;;;;7.75;4.22;;;;;;;14.75;81.94;98979.97;1725256;82;21046;-60
2021/06/10 01:22:31;;;;;;;6.72;4.45;;;;;;;14.75;82.00;98983.52;1732372;82;21027;-58
2021/06/10 01:25:37;;;;;;;9.40;4.65;;;;;;;14.78;81.89;98979.33;1737660;82;21078;-59
2021/06/10 01:28:17;;;;;;;5.90;4.08;;;;;;;14.80;81.83;98980.65;1718253;82;21865;-59
2021/06/10 01:30:56;;;;;;;8.00;4.85;;;;;;;14.80;81.73;98975.73;1752472;82;21462;-59
2021/06/10 01:33:38;;;;;;;9.15;4.85;;;;;;;14.79;81.77;98981.77;1714657;84;21129;-60
2021/06/10 01:36:15;;;;;;;5.97;4.92;;;;;;;14.77;81.72;98985.95;1737104;82;21038;-60
2021/06/10 01:38:46;;;;;;;8.70;4.42;;;;;;;14.77;81.65;98990.06;1674210;85;21059;-60
2021/06/10 01:41:13;;;;;;;7.25;4.80;;;;;;;14.78;81.65;98985.63;1704524;82;21007;-61
2021/06/10 01:43:40;;;;;;;;;;;;;;;14.77;81.65;98990.06;1733569;82;21027;-59
2021/06/10 01:46:07;;;;;;;5.10;4.35;;;;;;;14.78;81.74;98982.88;1725053;82;20520;-60
2021/06/10 01:48:34;;;;;;;7.60;4.78;;;;;;;14.72;81.94;98984.72;1745831;82;21063;-60
2021/06/10 01:51:01;;;;;;;;;;;;;;;14.67;82.04;98995.25;1734068;82;21416;-60
2021/06/10 01:53:27;;;;;;;;;;;;;;;14.70;82.06;98995.20;1730718;82;20129;-60
2021/06/10 01:55:55;;;;;;;6.55;4.92;;;;;;;14.66;82.16;99001.87;1724660;82;20127;-61
2021/06/10 01:58:21;;;;;;;7.22;5.28;;;;;;;14.61;82.43;98995.16;1694749;82;21055;-60
2021/06/10 02:00:49;;;;;;;;;;;;;;;14.62;82.45;98995.41;1731997;82;21560;-60
2021/06/10 02:03:15;;;;;;;6.65;4.80;;;;;;;14.66;82.43;98992.28;1723896;82;20141;-61
2021/06/10 02:05:42;;;;;;;5.62;4.92;;;;;;;14.64;82.61;98993.14;1723571;82;21026;-60
2021/06/10 02:08:10;;;;;;;7.65;5.42;;;;;;;14.64;82.63;98989.59;1734659;82;21102;-60
2021/06/10 02:10:37;;;;;;;6.53;5.40;;;;;;;14.66;82.59;98990.10;1741138;82;21031;-60
2021/06/10 02:13:07;;;;;;;10.03;5.35;;;;;;;14.63;82.85;98986.63;1704287;84;21039;-60
2021/06/10 02:15:35;;;;;;;6.58;5.25;;;;;;;14.60;82.80;98989.42;1718315;82;21016;-60
2021/06/10 02:18:02;;;;;;;8.53;5.58;;;;;;;14.63;82.74;98988.00;1730114;82;21020;-60
2021/06/10 02:20:28;;;;;;;10.32;5.17;;;;;;;14.63;82.73;98988.00;1739026;82;21425;-60
2021/06/10 02:22:55;;;;;;;7.35;5.30;;;;;;;14.64;82.72;98995.88;1732998;82;21012;-59
2021/06/10 02:28:21;;;;;;;5.90;4.87;;;;;;;14.64;83.27;99002.73;1782737;79;23416;-61
2021/06/10 02:30:48;;;;;;;6.03;5.28;;;;;;;14.64;83.27;99002.73;1735662;82;21333;-62
2021/06/10 02:33:16;;;;;;;6.97;5.37;;;;;;;14.63;83.05;98998.95;1709805;83;21055;-61
2021/06/10 02:35:43;;;;;;;8.60;5.30;;;;;;;14.65;83.05;99003.55;1705697;83;21027;-61
2021/06/10 02:38:10;;;;;;;7.15;5.12;;;;;;;14.70;83.01;98991.09;1716166;83;21494;-61
2021/06/10 02:40:41;;;;;;;5.33;4.60;;;;;;;14.75;82.93;98998.59;1677318;84;21042;-60
2021/06/10 02:43:08;;;;;;;9.43;5.33;;;;;;;14.78;83.01;99003.98;1685551;83;21047;-60
2021/06/10 02:45:35;;;;;;;6.55;5.12;;;;;;;14.80;82.91;98998.46;1729051;83;21022;-60
2021/06/10 02:48:02;;;;;;;5.95;5.10;;;;;;;14.85;82.86;98998.86;1724277;83;21574;-60
2021/06/10 02:50:29;;;;;;;7.60;5.05;;;;;;;14.87;82.80;98997.44;1725447;83;20983;-61
2021/06/10 02:52:57;;;;;;;6.55;5.03;;;;;;;14.86;82.76;98993.07;1691011;83;21035;-62
2021/06/10 02:55:23;;;;;;;8.30;5.00;;;;;;;14.88;82.82;98996.84;1669829;84;21007;-60
2021/06/10 02:57:55;;;;;;;;;;;;;;;14.91;82.86;98992.12;1689236;84;21020;-60
2021/06/10 03:00:24;;;;;;;6.22;4.87;;;;;;;14.97;82.80;98994.15;1711671;84;20122;-60
2021/06/10 03:02:50;;;;;;;6.30;5.30;;;;;;;14.94;82.89;98998.34;1690904;84;21110;-60
2021/06/10 03:05:17;;;;;;;6.70;5.50;;;;;;;14.98;82.88;98999.88;1695321;84;21478;-61
2021/06/10 03:07:44;;;;;;;6.53;5.15;;;;;;;15.02;82.91;98993.42;1702380;84;21150;-60
2021/06/10 03:10:12;;;;;;;7.00;5.55;;;;;;;15.05;82.92;99001.59;1707655;82;21067;-60
2021/06/10 03:12:39;;;;;;;6.12;5.20;;;;;;;15.07;82.92;98992.47;1704078;84;21161;-61
2021/06/10 03:15:10;;;;;;;9.55;5.22;;;;;;;15.14;82.87;98987.33;1701447;83;21087;-61
2021/06/10 03:17:37;;;;;;;8.23;5.42;;;;;;;15.22;82.86;98993.41;1707633;84;21071;-60
2021/06/10 03:20:05;;;;;;;7.75;5.40;;;;;;;15.32;82.72;98990.34;1691680;83;21044;-60
2021/06/10 03:22:32;;;;;;;8.48;5.40;;;;;;;15.41;82.60;98993.90;1704525;82;21055;-60
2021/06/10 03:25:00;;;;;;;7.25;5.33;;;;;;;15.54;82.56;98991.62;1688294;83;20996;-60
2021/06/10 03:27:28;;;;;;;7.42;5.78;;;;;;;15.73;82.15;98995.42;1708153;83;21070;-60
2021/06/10 03:29:55;;;;;;;6.00;5.40;;;;;;;15.82;81.87;98990.72;1706155;83;21522;-60
2021/06/10 03:32:21;;;;;;;;;;;;;;;15.88;80.86;98990.80;1710127;83;21095;-60
2021/06/10 03:34:47;;;;;;;5.92;5.20;;;;;;;15.91;80.49;98995.63;1699978;83;20162;-58
2021/06/10 03:37:13;;;;;;;9.30;5.90;;;;;;;15.89;80.54;98995.16;1641043;86;21507;-59
2021/06/10 03:39:40;;;;;;;;;;;;;;;15.88;80.42;98997.66;1651194;86;21022;-61
2021/06/10 03:42:07;;;;;;;7.45;6.03;;;;;;;15.85;80.48;98987.33;1716604;83;20154;-61
2021/06/10 03:44:34;;;;;;;6.08;5.40;;;;;;;15.77;80.75;98993.62;1694797;83;21553;-60
2021/06/10 03:47:01;;;;;;;6.33;5.72;;;;;;;15.80;80.90;98993.00;1646060;86;21044;-60
2021/06/10 03:49:27;;;;;;;8.18;5.72;;;;;;;15.83;80.82;98990.41;1642884;86;21521;-59
2021/06/10 03:51:54;;;;;;;6.97;6.08;;;;;;;15.86;80.80;98991.13;1646878;86;21079;-62
2021/06/10 03:54:21;;;;;;;6.35;5.53;;;;;;;15.87;80.75;98991.95;1706974;83;20996;-62
2021/06/10 03:56:47;;;;;;;8.75;5.72;;;;;;;15.88;80.94;98994.91;1718178;83;21063;-60
2021/06/10 03:59:14;;;;;;;;;;;;;;;15.96;81.06;98991.36;1695711;83;20963;-61
2021/06/10 04:01:40;;;;;;;8.40;6.35;;;;;;;16.06;80.82;98995.13;1701430;83;20206;-60
2021/06/10 04:04:07;;;;;;;8.13;5.45;;;;;;;16.12;80.47;98991.67;1692416;85;20996;-60
2021/06/10 04:06:35;;;;;;;7.97;6.05;;;;;;;16.20;80.33;98991.63;1710818;83;21431;-60
2021/06/10 04:09:06;;;;;;;8.05;5.53;;;;;;;16.26;80.07;98997.19;1655994;87;21076;-61
2021/06/10 04:11:34;;;;;;;8.03;5.53;;;;;;;16.38;80.11;98997.33;1646402;86;21018;-60
2021/06/10 04:14:00;;;;;;;8.65;5.65;;;;;;;16.52;79.89;98997.69;1656279;87;21079;-61
2021/06/10 04:16:28;;;;;;;8.70;5.78;;;;;;;16.62;79.07;98998.72;1644790;87;21608;-59
2021/06/10 04:18:55;;;;;;;8.48;6.25;;;;;;;16.73;78.60;99001.35;1693873;83;21134;-60
2021/06/10 04:21:22;;;;;;;6.50;5.20;;;;;;;16.77;78.14;98997.63;1693062;83;21046;-61
2021/06/10 04:23:49;;;;;;;8.88;6.12;;;;;;;16.91;78.26;99002.89;1714534;83;21079;-61
2021/06/10 04:26:16;;;;;;;7.28;6.35;;;;;;;17.10;78.12;98999.73;1709696;83;21054;-60
2021/06/10 04:28:45;;;;;;;7.92;5.80;;;;;;;17.30;77.08;99001.13;1660585;85;21188;-60
2021/06/10 04:31:18;;;;;;;8.73;5.65;;;;;;;17.57;76.46;98999.83;1741966;82;21503;-61
2021/06/10 04:33:45;;;;;;;6.20;5.53;;;;;;;17.93;74.21;99001.97;1716208;83;21068;-62
2021/06/10 04:36:11;;;;;;;8.83;5.50;;;;;;;18.11;72.59;98999.28;1736704;81;21523;-62
2021/06/10 04:38:39;;;;;;;7.03;5.80;;;;;;;18.21;72.68;98985.68;1716164;83;21081;-63
2021/06/10 04:41:05;;;;;;;6.95;5.22;;;;;;;18.35;71.96;98989.71;1739731;81;20994;-62
2021/06/10 04:43:32;;;;;;;6.40;5.15;;;;;;;18.52;71.46;98990.72;1654166;87;21087;-61
2021/06/10 04:45:59;;;;;;;7.70;5.80;;;;;;;18.69;70.86;98995.45;1716326;83;20990;-61
2021/06/10 04:48:26;;;;;;;7.40;5.10;;;;;;;18.75;70.42;98997.39;1732823;82;21083;-61
2021/06/10 04:50:53;;;;;;;6.10;5.50;;;;;;;18.83;70.03;98995.92;1727413;81;21024;-62
2021/06/10 04:53:20;;;;;;;6.75;5.20;;;;;;;18.97;70.05;98997.52;1737352;82;21547;-61
2021/06/10 04:55:47;;;;;;;7.92;5.45;;;;;;;19.20;69.44;98993.16;1657718;84;21004;-61
2021/06/10 04:58:13;;;;;;;6.53;4.97;;;;;;;19.49;68.76;98996.23;1722032;82;21593;-61
2021/06/10 05:00:40;;;;;;;6.78;4.72;;;;;;;19.73;68.01;98997.58;1743293;82;21023;-61
2021/06/10 05:03:07;;;;;;;6.33;5.00;;;;;;;19.84;67.00;99001.43;1745627;82;21589;-62
2021/06/10 05:05:34;;;;;;;5.87;5.28;;;;;;;19.76;66.51;99012.06;1740775;82;20967;-63
2021/06/10 05:08:00;;;;;;;6.75;5.17;;;;;;;19.64;67.07;99009.31;1740812;82;21011;-61
2021/06/10 05:10:28;;;;;;;5.37;4.87;;;;;;;19.54;67.33;99004.28;1675740;85;21016;-63
2021/06/10 05:12:54;;;;;;;5.28;4.60;;;;;;;19.49;67.58;98994.85;1723137;82;21528;-60
2021/06/10 05:15:21;;;;;;;7.67;5.20;;;;;;;19.50;67.67;98996.47;1725253;82;20952;-62
2021/06/10 05:17:47;;;;;;;6.35;5.33;;;;;;;19.51;68.14;98998.89;1745730;82;20987;-61
2021/06/10 05:20:15;;;;;;;5.40;4.78;;;;;;;19.65;69.11;99002.66;1745943;82;21030;-63
2021/06/10 05:22:42;;;;;;;7.92;4.60;;;;;;;19.96;68.23;99004.16;1745934;82;21058;-62
2021/06/10 05:25:09;;;;;;;5.45;4.55;;;;;;;20.29;66.54;99005.31;1737234;82;21016;-62
2021/06/10 05:27:36;;;;;;;5.28;4.62;;;;;;;20.55;66.91;99001.47;1722363;82;21523;-62
2021/06/10 05:30:07;;;;;;;5.42;4.12;;;;;;;20.88;65.33;99005.28;1680224;85;21047;-62
2021/06/10 05:32:34;;;;;;;5.97;4.55;;;;;;;21.08;63.25;99004.19;1722085;82;21138;-61
2021/06/10 05:35:00;;;;;;;4.97;3.95;;;;;;;21.10;62.43;98998.30;1722893;82;21007;-59
2021/06/10 05:37:26;;;;;;;6.05;4.95;;;;;;;21.04;62.50;99004.70;1716271;83;21035;-60
2021/06/10 05:39:54;;;;;;;5.35;4.58;;;;;;;21.01;62.47;99003.23;1716344;83;21557;-60
2021/06/10 05:42:20;;;;;;;6.58;4.25;;;;;;;21.13;62.04;98994.84;1716284;83;21150;-61
2021/06/10 05:44:46;;;;;;;6.10;4.42;;;;;;;21.25;62.09;98999.71;1728322;81;21530;-61
2021/06/10 05:47:13;;;;;;;4.92;4.05;;;;;;;21.19;63.25;98992.83;1739436;82;21091;-61
2021/06/10 05:49:40;;;;;;;5.08;4.55;;;;;;;21.34;62.47;99005.84;1739581;82;21048;-61
2021/06/10 05:52:06;;;;;;;6.17;4.70;;;;;;;21.48;62.87;99004.55;1739848;82;21040;-61
2021/06/10 05:54:33;;;;;;;4.45;4.05;;;;;;;21.56;62.08;99009.09;1745977;82;21015;-60
2021/06/10 05:57:00;;;;;;;9.33;4.60;;;;;;;21.66;62.41;99011.29;1745912;82;21675;-60
2021/06/10 05:59:26;;;;;;;5.28;4.28;;;;;;;21.71;60.15;99004.90;1746054;82;20975;-61
2021/06/10 06:01:53;;;;;;;5.17;3.67;;;;;;;21.72;61.67;99005.67;1746198;82;21001;-60
2021/06/10 06:04:20;;;;;;;4.42;3.60;;;;;;;21.76;59.25;99002.41;1721829;82;21071;-61
2021/06/10 06:06:48;;;;;;;3.58;2.60;;;;;;;21.83;59.80;99008.09;1730037;81;21411;-61
2021/06/10 06:09:15;;;;;;;3.35;2.37;;;;;;;21.88;57.03;99002.86;1739450;82;21059;-61
2021/06/10 06:11:42;;;;;;;2.65;2.33;;;;;;;21.89;56.31;99015.55;1736409;81;21057;-61
2021/06/10 06:14:10;;;;;;;2.90;2.30;;;;;;;21.88;56.33;99010.59;1677086;85;21499;-60
2021/06/10 06:16:40;;;;;;;3.15;2.60;;;;;;;22.00;57.43;99011.84;1744623;82;20964;-61
2021/06/10 06:19:07;;;;;;;2.67;2.35;;;;;;;22.11;57.11;99014.83;1736384;82;21445;-61
2021/06/10 06:21:34;;;;;;;2.47;2.20;;;;;;;22.19;56.74;99011.85;1739083;80;21343;-61
2021/06/10 06:24:02;;;;;;;3.65;2.62;;;;;;;22.26;54.76;99006.45;1736011;82;21052;-61
2021/06/10 06:26:29;;;;;;;5.45;2.55;;;;;;;22.23;55.40;99014.70;1659855;84;21099;-60
2021/06/10 06:28:59;;;;;;;3.15;2.80;;;;;;;22.26;55.32;99009.80;1706683;83;21020;-61
2021/06/10 06:31:25;;;;;;;3.05;2.75;;;;;;;22.21;55.58;99011.50;1702967;83;21063;-61
2021/06/10 06:33:52;;;;;;;3.37;2.60;;;;;;;22.19;57.75;99011.85;1718919;83;21051;-60
2021/06/10 06:36:20;;;;;;;3.00;2.70;;;;;;;22.20;55.96;99007.92;1696755;83;21586;-61
2021/06/10 06:38:48;;;;;;;4.65;2.77;;;;;;;22.22;56.55;99004.19;1690922;85;21157;-61
2021/06/10 06:41:14;;;;;;;3.87;2.98;;;;;;;22.44;55.39;99008.75;1706872;83;21545;-60
2021/06/10 06:43:41;;;;;;;3.30;2.58;;;;;;;22.71;56.14;99004.91;1711057;82;21072;-58
2021/06/10 06:46:09;;;;;;;7.67;2.85;;;;;;;22.75;54.14;99006.59;1707975;83;21032;-60
2021/06/10 06:48:37;;;;;;;2.50;2.30;;;;;;;22.77;53.55;99004.27;1708813;83;21040;-59
2021/06/10 06:51:05;;;;;;;4.03;2.60;;;;;;;22.70;54.44;99001.95;1713789;84;21566;-61
2021/06/10 06:53:32;;;;;;;3.80;2.58;;;;;;;22.62;54.77;99012.66;1708407;84;21156;-59
2021/06/10 06:56:00;;;;;;;2.90;2.17;;;;;;;22.47;53.94;99019.91;1710064;83;21031;-61
2021/06/10 06:58:27;;;;;;;4.12;2.83;;;;;;;22.32;54.30;99013.88;1710356;83;21039;-60
2021/06/10 07:00:53;;;;;;;4.22;3.00;;;;;;;22.14;55.52;99009.36;1715900;83;21401;-61
2021/06/10 07:03:21;;;;;;;3.02;2.50;;;;;;;22.01;56.45;99015.42;1656201;86;21072;-61
2021/06/10 07:05:47;;;;;;;3.25;2.70;;;;;;;21.97;56.15;99013.16;1634059;86;21083;-59
2021/06/10 07:08:14;;;;;;;3.10;2.80;;;;;;;22.04;56.85;99010.53;1654542;85;21111;-61
2021/06/10 07:10:41;;;;;;;4.47;2.80;;;;;;;22.02;55.74;99013.69;1713358;83;21023;-61
2021/06/10 07:13:08;;;;;;;3.75;2.90;;;;;;;22.03;56.35;99016.69;1714704;83;21063;-60
2021/06/10 07:15:38;;;;;;;3.10;2.42;;;;;;;22.13;55.93;99016.09;1657921;86;21021;-60
2021/06/10 07:18:04;;;;;;;3.02;2.50;;;;;;;22.31;56.07;99019.22;1610385;86;21614;-60
2021/06/10 07:20:31;;;;;;;3.85;2.98;;;;;;;22.55;56.89;99014.72;1655976;86;21479;-61
2021/06/10 07:22:57;;;;;;;6.45;2.90;;;;;;;22.66;53.89;99017.11;1630098;85;21049;-61
2021/06/10 07:25:23;;;;;;;3.92;2.85;;;;;;;22.60;54.58;99015.02;1715868;83;21015;-61
2021/06/10 07:27:50;;;;;;;4.33;2.87;;;;;;;22.57;55.29;99017.92;1649419;85;21063;-60
2021/06/10 07:30:18;;;;;;;3.50;2.98;;;;;;;22.52;56.15;99013.27;1721189;83;21007;-60
2021/06/10 07:32:44;;;;;;;4.37;3.05;;;;;;;22.48;56.03;99019.33;1721395;83;21795;-59
2021/06/10 07:35:12;;;;;;;3.62;3.00;;;;;;;22.31;55.63;99016.45;1721644;83;21530;-59
2021/06/10 07:37:39;;;;;;;3.85;3.45;;;;;;;22.21;56.51;99019.20;1686310;83;21560;-59
2021/06/10 07:40:07;;;;;;;7.37;3.27;;;;;;;22.09;56.42;99015.22;1693598;82;21063;-60
2021/06/10 07:42:34;;;;;;;4.78;2.92;;;;;;;21.99;56.61;99021.93;1687906;84;21630;-60
2021/06/10 07:45:00;;;;;;;4.17;3.20;;;;;;;21.81;57.23;99025.68;1715696;83;21019;-60
2021/06/10 07:47:26;;;;;;;5.70;3.67;;;;;;;21.73;57.46;99027.48;1719717;83;21696;-60
2021/06/10 07:49:53;;;;;;;4.00;3.60;;;;;;;21.64;56.98;99027.48;1721342;83;21070;-60
2021/06/10 07:52:19;;;;;;;3.60;3.17;;;;;;;21.55;58.17;99027.67;1721718;83;21502;-60
2021/06/10 07:54:45;;;;;;;3.72;3.42;;;;;;;21.49;58.26;99030.51;1719489;83;21082;-59
2021/06/10 07:57:12;;;;;;;5.17;3.55;;;;;;;21.51;58.33;99028.16;1706381;82;21565;-59
2021/06/10 07:59:39;;;;;;;3.50;3.20;;;;;;;21.55;58.92;99033.78;1709776;82;21007;-59
2021/06/10 08:02:08;;;;;;;3.75;3.20;;;;;;;21.50;58.52;99023.01;1670311;85;21054;-61
2021/06/10 08:04:34;;;;;;;4.92;3.92;;;;;;;21.64;59.01;99033.02;1619809;85;21089;-58
2021/06/10 08:07:00;;;;;;;4.30;3.58;;;;;;;21.75;58.56;99030.69;1721122;83;21090;-61
2021/06/10 08:09:26;;;;;;;4.78;3.40;;;;;;;21.77;59.51;99026.98;1717963;83;21541;-61
2021/06/10 08:11:55;;;;;;;4.72;3.15;;;;;;;21.80;58.84;99026.84;1688460;83;21043;-60
2021/06/10 08:14:21;;;;;;;7.12;3.22;;;;;;;21.90;56.30;99026.84;1719907;82;21040;-60
2021/06/10 08:16:48;;;;;;;4.12;3.58;;;;;;;22.06;56.24;99019.30;1701555;82;21066;-61
2021/06/10 08:19:15;;;;;;;4.25;3.37;;;;;;;22.29;56.84;99014.61;1700700;82;21070;-60
2021/06/10 08:21:41;;;;;;;4.12;3.35;;;;;;;22.52;57.35;99011.88;1699105;82;21012;-60
2021/06/10 08:24:08;;;;;;;5.10;3.50;;;;;;;22.69;56.54;99012.81;1667950;85;21445;-60
2021/06/10 08:26:35;;;;;;;3.92;3.50;;;;;;;22.80;56.46;99011.84;1674384;85;21558;-61
2021/06/10 08:29:02;;;;;;;4.75;3.22;;;;;;;22.74;56.30;99013.91;1693447;83;21087;-60
2021/06/10 08:31:28;;;;;;;4.58;3.30;;;;;;;22.66;55.42;99010.75;1699719;83;21466;-62
2021/06/10 08:33:55;;;;;;;3.80;3.15;;;;;;;22.60;55.28;99007.47;1708124;83;21071;-60
2021/06/10 08:36:23;;;;;;;4.87;2.60;;;;;;;22.62;53.65;99007.11;1702990;83;21000;-60
2021/06/10 08:38:51;;;;;;;3.60;2.80;;;;;;;22.61;53.21;99005.50;1719201;83;21051;-61
2021/06/10 08:41:17;;;;;;;3.60;2.90;;;;;;;22.84;53.19;98994.45;1718524;83;21007;-61
2021/06/10 08:43:45;;;;;;;4.95;3.15;;;;;;;23.15;52.04;98994.16;1692547;83;21161;-60
2021/06/10 08:46:13;;;;;;;4.78;2.98;;;;;;;23.40;52.09;98990.38;1655795;86;21034;-60
2021/06/10 08:48:43;;;;;;;3.17;2.80;;;;;;;23.61;52.91;98986.54;1644732;87;21081;-60
2021/06/10 08:51:11;;;;;;;2.92;2.60;;;;;;;23.60;50.84;98989.09;1694684;83;21508;-60
2021/06/10 08:53:38;;;;;;;2.90;2.50;;;;;;;23.67;51.80;98986.41;1711027;83;21086;-63
2021/06/10 08:56:05;;;;;;;4.83;2.98;;;;;;;23.79;52.28;98987.00;1697354;83;21557;-62
2021/06/10 08:58:33;;;;;;;4.12;2.75;;;;;;;23.90;49.91;98982.96;1702756;83;21011;-62
2021/06/10 09:01:00;;;;;;;4.03;2.52;;;;;;;23.72;50.51;98989.68;1721179;83;21012;-62
2021/06/10 09:03:29;;;;;;;3.80;2.75;;;;;;;23.44;49.52;98987.09;1715259;83;21581;-61
2021/06/10 09:06:12;;;;;;;3.10;2.80;;;;;;;23.16;49.25;98986.05;1721028;83;21043;-62
2021/06/10 09:08:41;;;;;;;2.55;2.35;;;;;;;23.07;50.00;98980.75;1720751;83;21700;-61
2021/06/10 09:11:21;;;;;;;5.42;2.90;;;;;;;23.18;49.46;98980.34;1721211;83;21067;-59
2021/06/10 09:13:55;;;;;;;2.90;2.60;;;;;;;23.31;49.44;98979.55;1700373;83;21063;-59
2021/06/10 09:16:28;;;;;;;2.80;2.45;;;;;;;23.39;49.87;98977.66;1654039;86;21457;-62
2021/06/10 09:19:17;;;;;;;2.95;2.45;;;;;;;23.52;49.93;98978.50;1644693;87;21151;-61
2021/06/10 09:21:48;;;;;;;4.12;2.40;;;;;;;23.77;48.55;98969.88;1692105;83;21075;-60
2021/06/10 09:24:33;;;;;;;5.40;2.85;;;;;;;24.00;48.67;98961.44;1691991;85;21086;-61
2021/06/10 09:27:10;;;;;;;4.33;2.65;;;;;;;23.96;47.96;98965.34;1692275;85;21641;-62
2021/06/10 09:29:46;;;;;;;4.85;2.90;;;;;;;23.85;48.79;98961.63;1663221;84;21499;-60
2021/06/10 09:32:19;;;;;;;3.25;2.80;;;;;;;23.70;50.40;98970.41;1702271;84;21039;-60
2021/06/10 09:34:54;;;;;;;3.22;2.60;;;;;;;23.41;51.46;98969.77;1693578;83;21479;-60
2021/06/10 09:37:33;;;;;;;3.08;2.77;;;;;;;22.92;52.96;98962.27;1688770;84;21184;-60
2021/06/10 09:40:15;;;;;;;4.55;2.52;;;;;;;22.58;55.13;98965.44;1708963;84;21132;-60
2021/06/10 09:42:42;;;;;;;4.03;2.75;;;;;;;22.19;55.23;98975.81;1711242;84;21118;-60
2021/06/10 09:45:13;;;;;;;3.70;3.05;;;;;;;21.85;55.52;98972.53;1710896;84;21048;-61
2021/06/10 09:47:45;;;;;;;3.02;2.72;;;;;;;21.75;57.50;98977.27;1685017;84;21059;-61
2021/06/10 09:50:22;;;;;;;3.55;2.50;;;;;;;21.65;56.00;98974.48;1710638;83;21051;-59
2021/06/10 09:52:59;;;;;;;2.72;2.27;;;;;;;21.55;56.19;98974.25;1682596;85;21055;-61
2021/06/10 09:56:02;;;;;;;5.08;2.77;;;;;;;21.49;55.89;98977.89;1682308;85;21039;-61
2021/06/10 09:58:40;;;;;;;2.35;2.15;;;;;;;21.38;55.55;98979.63;1681251;85;21107;-62
2021/06/10 10:01:21;;;;;;;4.80;2.50;;;;;;;21.27;56.66;98982.73;1682643;85;21522;-61
2021/06/10 10:03:50;;;;;;;2.60;2.40;;;;;;;21.19;57.07;98978.98;1675001;85;21080;-62
2021/06/10 10:06:25;;;;;;;3.37;2.70;;;;;;;21.15;57.47;98975.33;1680546;84;20988;-63
2021/06/10 10:09:00;;;;;;;3.20;2.47;;;;;;;21.11;57.38;98968.12;1682528;85;21151;-62
2021/06/10 10:11:27;;;;;;;4.15;3.02;;;;;;;21.12;58.03;98982.16;1695985;84;20984;-62
2021/06/10 10:13:56;;;;;;;3.30;2.72;;;;;;;20.94;56.87;98964.33;1710855;84;21039;-62
2021/06/10 10:16:29;;;;;;;3.37;2.90;;;;;;;20.94;57.45;98983.09;1711071;84;21372;-62
2021/06/10 10:18:57;;;;;;;3.30;2.85;;;;;;;20.95;58.50;98983.90;1710746;84;21079;-62
2021/06/10 10:21:27;;;;;;;3.92;3.10;;;;;;;20.98;58.96;98988.70;1702566;84;20972;-60
2021/06/10 10:24:06;;;;;;;3.80;3.40;;;;;;;20.99;59.66;98996.66;1682535;84;21079;-61
2021/06/10 10:26:33;;;;;;;7.55;4.05;;;;;;;20.89;60.83;98997.21;1654802;85;21392;-61
2021/06/10 10:29:00;;;;;;;4.58;3.95;;;;;;;20.65;61.73;98986.33;1681947;85;21063;-62
2021/06/10 10:31:28;;;;;;;5.83;3.80;;;;;;;20.57;62.58;98996.41;1736401;81;21008;-62
2021/06/10 10:33:55;;;;;;;7.62;4.35;;;;;;;20.58;63.49;98996.60;1739722;82;21044;-61
2021/06/10 10:36:30;;;;;;;7.75;5.05;;;;;;;20.61;65.29;98988.20;1739856;82;20945;-62
2021/06/10 10:39:08;;;;;;;7.65;4.37;;;;;;;20.56;66.29;98987.87;1739853;82;21633;-61
2021/06/10 10:41:54;;;;;;;5.67;4.78;;;;;;;20.45;67.66;98988.17;1729844;82;21452;-60
2021/06/10 10:44:26;;;;;;;5.55;4.70;;;;;;;20.37;68.67;98976.69;1740073;82;21036;-61
2021/06/10 10:47:05;;;;;;;6.20;4.80;;;;;;;20.40;69.46;98981.53;1739508;82;21039;-61
2021/06/10 10:49:47;;;;;;;7.03;5.85;;;;;;;20.43;70.23;98971.15;1735265;82;21546;-60
2021/06/10 10:52:26;;;;;;;8.83;7.20;;;;;;;20.40;70.59;98976.58;1665325;85;21079;-59
2021/06/10 10:54:51;;;;;;;8.23;7.03;;;;;;;20.33;71.33;98977.98;1735064;82;21397;-59
2021/06/10 10:57:38;;;;;;;9.55;8.40;;;;;;;20.42;71.98;98977.02;1739261;82;21685;-60
2021/06/10 11:00:08;;;;;;;9.05;7.65;;;;;;;20.54;71.33;98978.34;1678282;85;21067;-59
2021/06/10 11:02:40;;;;;;;9.50;6.33;;;;;;;20.66;71.19;98979.62;1733165;82;21582;-59
2021/06/10 11:05:10;;;;;;;7.80;5.08;;;;;;;20.70;70.05;98977.17;1733790;82;21032;-59
2021/06/10 11:07:43;;;;;;;6.40;4.70;;;;;;;20.71;69.95;98971.06;1717043;82;21080;-59
2021/06/10 11:10:15;;;;;;;6.37;4.80;;;;;;;20.76;70.22;98971.59;1737740;82;21570;-59
2021/06/10 11:12:51;;;;;;;6.50;4.35;;;;;;;20.87;69.28;98966.31;1734371;82;21103;-59
2021/06/10 11:15:26;;;;;;;5.40;4.22;;;;;;;21.00;70.12;98955.97;1716686;83;21056;-59
2021/06/10 11:17:55;;;;;;;6.03;4.37;;;;;;;21.20;69.21;98957.66;1735893;82;21138;-59
2021/06/10 11:20:40;;;;;;;5.37;4.35;;;;;;;21.36;67.50;98950.13;1741700;82;20951;-58
2021/06/10 11:23:26;;;;;;;5.53;4.30;;;;;;;21.48;65.23;98944.44;1720043;82;21506;-58
2021/06/10 11:25:54;;;;;;;13.70;9.78;;;;;;;21.63;65.92;98956.63;1746226;82;21517;-59
2021/06/10 11:28:27;;;;;;;15.83;11.53;;;;;;;21.88;67.04;98965.45;1741022;82;21535;-57
2021/06/10 11:31:00;;;;;;;8.75;6.90;;;;;;;22.17;67.79;98964.30;1739588;82;21049;-58
2021/06/10 11:33:29;;;;;;;4.50;3.60;;;;;;;22.44;64.21;98968.55;1731881;82;21115;-58
2021/06/10 11:36:06;;;;;;;4.47;2.98;;;;;;;22.32;58.72;98978.63;1740779;82;21008;-58
2021/06/10 11:38:40;;;;;;;7.33;6.35;;;;;;;22.02;62.28;98978.23;1748275;82;21051;-60
2021/06/10 11:41:17;;;;;;;6.87;6.17;;;;;;;21.46;63.46;98973.09;1740003;82;21539;-58
2021/06/10 11:43:49;;;;;;;8.55;7.42;;;;;;;21.11;66.11;98987.50;1739638;82;21079;-59
2021/06/10 11:46:17;;;;;;;9.98;6.50;;;;;;;20.81;67.69;98998.19;1684298;85;21338;-59
2021/06/10 11:48:48;;;;;;;17.73;15.93;;;;;;;20.66;68.30;98989.30;1685590;85;21043;-58